Baileys Prairie, Texas
Current Conditions -  °F | °C
As of 5:53 PM on Saturday 25 Oct 2014 (Local Time) from KLBX Reporting Station
Clear Clear  
Wind Chill: 75°   Ceiling: Unl
Heat Index: 75°   Visibility: 10mi
Dew Point: 61°   Wind: 7mph
Humidity: 62%   Direction: 130°SE
Pressure: 30.1"   Gusts: NA
Location:  29.1898°N, 95.4754°W
Report Text: KLBX 252253Z AUTO 13006KT 10SM CLR 24/16 A3010 RMK AO2 SLP193 T02390161
Loading
Personal Weather Stations






























Interactive Weather Map
Tropical Storm Tracking
New forecast layout! Learn more

10-Day Weather Forecast

Advertisements
Track Severe Weather on mobile